Wetterdaten für den Flughafen Lübeck Blankensee


ADDS - METARS form results Aviation Digital Data Service (ADDS) Output produced by METARs form (1837 UTC 09 July 2020)
found at http://www.aviationweather.gov/metar/data/
 
EDDH 091820Z 04005KT 9999 BKN013 13/12 Q1011 TEMPO BKN007
TAF AMD EDDH 091830Z 0918/1024 02005KT 9999 SCT007 BKN010 TEMPO 0918/0921 BKN015 TEMPO 0921/1010 BKN007 PROB30 TEMPO 0921/1009 3500 DZRA BKN004 BECMG 1010/1012 30009KT BKN045 BECMG 1022/1024 24005KT

Nord: Hamburg, Lübeck
Ost: Schwerin, Rostock
Süd: Hannover
West: Bremen, Nordhloz

Copyright © 2016 Flugschule Hohensee